TJMZTISX

Guest
Details From TJMZ - Mayaguez/Eugenio Maria De Hostos
To TISX - St Croix - Henry E Rohlsen
Flight Number -
Tags decoded
Created
Modified
Stats Distance 140 nm / 259 km
Max Altitude 0 ft / 0 m
Waypoints 6
Social Downloads 1
Likes 0
Share VATSIM

Download

Looking for another format? Having issues loading an existing format? Contact us
Advertisement - Login to hide

Notes

Requested: TJMZ JOSHE TUUNA VEDAS SNOOZ TISX

Route

TJMZ JOSHE TUUNA VEDAS SNOOZ TISX

ID Type Via Altitude Latitude Longitude Leg Dist Tot Dist Heading (true) Name
O TJMZ APT - 0 ft / 0 m 18.25564˚ -67.14845˚ - 0 nm - Mayaguez/Eugenio Maria De Hostos
JOSHE FIX - 0 ft / 0 m 18.24237˚ -66.50098˚ 36 nm 36 nm 91° / 91° -
TUUNA FIX - 0 ft / 0 m 17.98088˚ -65.88613˚ 38 nm 75 nm 114° / 114° -
VEDAS FIX - 0 ft / 0 m 17.91934˚ -65.58658˚ 17 nm 92 nm 102° / 102° -
SNOOZ FIX - 0 ft / 0 m 17.81496˚ -65.08387˚ 29 nm 122 nm 102° / 102° -
O TISX APT - 0 ft / 0 m 17.70151˚ -64.80197˚ 17 nm 139 nm 113° / 113° St Croix - Henry E Rohlsen

Altitude Profile

Advertisement - Login to hide

TJMZ

Details ICAO TJMZ (MAZ)
Name Mayaguez/Eugenio Maria De Hostos
Region USA (Puerto Rico)
Timezone America/Puerto_Rico (UTC-4.0)
Stats Elevation 28 ft / 9 m (AMSL)
Location 18.255644° -67.148451°
Runways 1
Magnetic Variation 12.737° W

METAR

Not found

TAF

TAF TJMZ 250520Z 2506/2606 06003KT P6SM SKC FM251400 08007KT P6SM SCT040 FM251700 28011KT P6SM VCTS SCT025CB BKN040 FM252300 08006KT P6SM FEW030 SCT060 SCT100 AMD NOT SKED

Decode

Departure Runways

ID Width Length Bearing (true) Bearing (mag) Surface Threshold Offset Overrun Length
09 98 ft / 30 m 4,995 ft / 1,522 m 76.40° 89.14° Asphalt 0 ft / 0 m 0 ft / 0 m
27 98 ft / 30 m 4,995 ft / 1,522 m 256.41° 269.15° Asphalt 0 ft / 0 m 0 ft / 0 m

TISX

Details ICAO TISX (STX)
Name St Croix - Henry E Rohlsen
Region USA (U.S. Virgin Islands)
Timezone America/St_Thomas (UTC-4.0)
Stats Elevation 65 ft / 20 m (AMSL)
Location 17.701505° -64.801975°
Runways 1
Magnetic Variation 13.694° W

METAR

TISX 250653Z AUTO 07010KT 10SM FEW023 SCT028 26/23 A3001

Decode

TAF

TAF TISX 250520Z 2506/2606 06006KT P6SM SKC FM251400 10015KT P6SM SCT030 BKN040 FM252300 09009KT P6SM SCT030

Decode

Destination Runways

ID Width Length Bearing (true) Bearing (mag) Surface Threshold Offset Overrun Length
10 151 ft / 46 m 9,969 ft / 3,039 m 83.93° 97.62° Asphalt 0 ft / 0 m 200 ft / 61 m
28 151 ft / 46 m 9,969 ft / 3,039 m 263.93° 277.62° Asphalt 984 ft / 300 m 200 ft / 61 m

Approach Navaids

Runway Type Ident Frequency Range Bearing (true) Bearing (mag) Slope Elevation
10 Localiser ISTX 109.50 MHz 18 nm / 33 km 83.89° 97.59° - 23 ft / 7 m (AMSL)
10 Glidescope ISTX 109.50 MHz 10 nm / 19 km 83.89° 97.59° 3.00° 54 ft / 16 m (AMSL)